sensor_id;sensor_type;location;lat;lon;timestamp;temperature;humidity
14170;DHT22;63889;50.596;8.690;2023-06-04T00:00:16;16.00;87.60
14170;DHT22;63889;50.596;8.690;2023-06-04T00:02:42;15.90;88.40
14170;DHT22;63889;50.596;8.690;2023-06-04T00:05:08;15.90;88.20
14170;DHT22;63889;50.596;8.690;2023-06-04T00:07:34;15.80;89.30
14170;DHT22;63889;50.596;8.690;2023-06-04T00:09:59;15.90;88.80
14170;DHT22;63889;50.596;8.690;2023-06-04T00:12:25;15.90;89.20
14170;DHT22;63889;50.596;8.690;2023-06-04T00:14:51;16.00;89.20
14170;DHT22;63889;50.596;8.690;2023-06-04T00:17:16;15.90;89.70
14170;DHT22;63889;50.596;8.690;2023-06-04T00:19:42;15.80;90.00
14170;DHT22;63889;50.596;8.690;2023-06-04T00:22:07;15.70;89.50
14170;DHT22;63889;50.596;8.690;2023-06-04T00:24:35;15.70;90.00
14170;DHT22;63889;50.596;8.690;2023-06-04T00:27:00;15.70;90.00
14170;DHT22;63889;50.596;8.690;2023-06-04T00:29:26;15.60;90.30
14170;DHT22;63889;50.596;8.690;2023-06-04T00:31:52;15.60;90.20
14170;DHT22;63889;50.596;8.690;2023-06-04T00:34:18;15.30;90.30
14170;DHT22;63889;50.596;8.690;2023-06-04T00:36:45;15.30;90.40
14170;DHT22;63889;50.596;8.690;2023-06-04T00:39:10;15.40;90.80
14170;DHT22;63889;50.596;8.690;2023-06-04T00:41:36;15.20;90.60
14170;DHT22;63889;50.596;8.690;2023-06-04T00:44:01;15.10;90.90
14170;DHT22;63889;50.596;8.690;2023-06-04T00:46:31;15.30;91.00
14170;DHT22;63889;50.596;8.690;2023-06-04T00:48:57;15.20;91.00
14170;DHT22;63889;50.596;8.690;2023-06-04T00:51:23;15.20;91.30
14170;DHT22;63889;50.596;8.690;2023-06-04T00:53:52;15.20;91.30
14170;DHT22;63889;50.596;8.690;2023-06-04T00:56:18;15.20;91.20
14170;DHT22;63889;50.596;8.690;2023-06-04T00:58:45;15.20;91.60
14170;DHT22;63889;50.596;8.690;2023-06-04T01:01:20;15.20;91.60
14170;DHT22;63889;50.596;8.690;2023-06-04T01:03:51;15.00;91.70
14170;DHT22;63889;50.596;8.690;2023-06-04T01:06:22;14.90;91.90
14170;DHT22;63889;50.596;8.690;2023-06-04T01:08:49;14.90;92.10
14170;DHT22;63889;50.596;8.690;2023-06-04T01:13:57;14.90;92.20
14170;DHT22;63889;50.596;8.690;2023-06-04T01:16:23;14.80;92.40
14170;DHT22;63889;50.596;8.690;2023-06-04T01:18:50;14.70;92.30
14170;DHT22;63889;50.596;8.690;2023-06-04T01:21:17;14.70;92.70
14170;DHT22;63889;50.596;8.690;2023-06-04T01:23:51;14.80;93.70
14170;DHT22;63889;50.596;8.690;2023-06-04T01:26:31;14.70;92.80
14170;DHT22;63889;50.596;8.690;2023-06-04T01:28:58;14.60;93.20
14170;DHT22;63889;50.596;8.690;2023-06-04T01:31:25;14.80;93.40
14170;DHT22;63889;50.596;8.690;2023-06-04T01:33:57;14.80;93.00
14170;DHT22;63889;50.596;8.690;2023-06-04T01:36:25;14.90;92.80
14170;DHT22;63889;50.596;8.690;2023-06-04T01:38:51;14.80;92.90
14170;DHT22;63889;50.596;8.690;2023-06-04T01:41:17;14.70;92.60
14170;DHT22;63889;50.596;8.690;2023-06-04T01:43:42;14.70;93.00
14170;DHT22;63889;50.596;8.690;2023-06-04T01:46:08;14.80;93.10
14170;DHT22;63889;50.596;8.690;2023-06-04T01:48:33;14.70;93.00
14170;DHT22;63889;50.596;8.690;2023-06-04T01:50:59;14.70;93.50
14170;DHT22;63889;50.596;8.690;2023-06-04T01:53:25;14.70;93.40
14170;DHT22;63889;50.596;8.690;2023-06-04T01:55:51;14.40;93.70
14170;DHT22;63889;50.596;8.690;2023-06-04T01:58:18;14.20;93.90
14170;DHT22;63889;50.596;8.690;2023-06-04T02:00:48;14.20;94.20
14170;DHT22;63889;50.596;8.690;2023-06-04T02:03:15;14.20;94.20
14170;DHT22;63889;50.596;8.690;2023-06-04T02:05:40;14.10;94.50
14170;DHT22;63889;50.596;8.690;2023-06-04T02:08:06;14.20;94.40
14170;DHT22;63889;50.596;8.690;2023-06-04T02:10:31;14.40;94.30
14170;DHT22;63889;50.596;8.690;2023-06-04T02:12:58;14.20;94.40
14170;DHT22;63889;50.596;8.690;2023-06-04T02:15:25;14.30;94.20
14170;DHT22;63889;50.596;8.690;2023-06-04T02:17:56;14.00;94.40
14170;DHT22;63889;50.596;8.690;2023-06-04T02:20:23;14.20;95.20
14170;DHT22;63889;50.596;8.690;2023-06-04T02:22:49;14.00;94.60
14170;DHT22;63889;50.596;8.690;2023-06-04T02:25:14;14.00;95.20
14170;DHT22;63889;50.596;8.690;2023-06-04T02:27:40;14.10;94.90
14170;DHT22;63889;50.596;8.690;2023-06-04T02:30:06;14.10;95.00
14170;DHT22;63889;50.596;8.690;2023-06-04T02:32:32;14.10;95.40
14170;DHT22;63889;50.596;8.690;2023-06-04T02:34:59;14.20;95.30
14170;DHT22;63889;50.596;8.690;2023-06-04T02:37:24;14.10;95.40
14170;DHT22;63889;50.596;8.690;2023-06-04T02:39:50;14.10;95.40
14170;DHT22;63889;50.596;8.690;2023-06-04T02:42:15;14.00;95.60
14170;DHT22;63889;50.596;8.690;2023-06-04T02:44:41;14.10;95.90
14170;DHT22;63889;50.596;8.690;2023-06-04T02:47:07;14.10;95.70
14170;DHT22;63889;50.596;8.690;2023-06-04T02:49:32;14.00;95.90
14170;DHT22;63889;50.596;8.690;2023-06-04T02:51:58;13.80;95.80
14170;DHT22;63889;50.596;8.690;2023-06-04T02:54:23;14.00;96.10
14170;DHT22;63889;50.596;8.690;2023-06-04T02:56:49;14.20;96.00
14170;DHT22;63889;50.596;8.690;2023-06-04T02:59:15;14.10;96.30
14170;DHT22;63889;50.596;8.690;2023-06-04T03:01:40;14.10;96.40
14170;DHT22;63889;50.596;8.690;2023-06-04T03:04:06;14.00;96.10
14170;DHT22;63889;50.596;8.690;2023-06-04T03:06:36;13.80;96.30
14170;DHT22;63889;50.596;8.690;2023-06-04T03:09:04;13.70;97.00
14170;DHT22;63889;50.596;8.690;2023-06-04T03:11:29;13.70;96.90
14170;DHT22;63889;50.596;8.690;2023-06-04T03:13:55;13.50;97.10
14170;DHT22;63889;50.596;8.690;2023-06-04T03:16:21;13.60;97.10
14170;DHT22;63889;50.596;8.690;2023-06-04T03:18:46;13.70;97.20
14170;DHT22;63889;50.596;8.690;2023-06-04T03:21:12;13.80;96.90
14170;DHT22;63889;50.596;8.690;2023-06-04T03:23:38;13.80;97.20
14170;DHT22;63889;50.596;8.690;2023-06-04T03:26:05;13.70;96.90
14170;DHT22;63889;50.596;8.690;2023-06-04T03:28:31;13.70;97.10
14170;DHT22;63889;50.596;8.690;2023-06-04T03:30:57;13.50;97.30
14170;DHT22;63889;50.596;8.690;2023-06-04T03:33:23;13.70;97.20
14170;DHT22;63889;50.596;8.690;2023-06-04T03:35:50;13.70;97.30
14170;DHT22;63889;50.596;8.690;2023-06-04T03:38:16;13.50;97.70
14170;DHT22;63889;50.596;8.690;2023-06-04T03:40:42;13.60;97.50
14170;DHT22;63889;50.596;8.690;2023-06-04T03:43:08;13.60;97.30
14170;DHT22;63889;50.596;8.690;2023-06-04T03:45:34;13.70;97.30
14170;DHT22;63889;50.596;8.690;2023-06-04T03:47:59;13.50;97.20
14170;DHT22;63889;50.596;8.690;2023-06-04T03:50:25;13.60;97.40
14170;DHT22;63889;50.596;8.690;2023-06-04T03:52:51;13.50;97.40
14170;DHT22;63889;50.596;8.690;2023-06-04T03:55:16;13.50;97.70
14170;DHT22;63889;50.596;8.690;2023-06-04T03:57:42;13.40;97.70
14170;DHT22;63889;50.596;8.690;2023-06-04T04:00:09;13.50;97.60
14170;DHT22;63889;50.596;8.690;2023-06-04T04:02:42;13.20;97.90
14170;DHT22;63889;50.596;8.690;2023-06-04T04:05:08;13.30;98.30
14170;DHT22;63889;50.596;8.690;2023-06-04T04:07:35;13.50;98.40
14170;DHT22;63889;50.596;8.690;2023-06-04T04:10:00;13.60;98.40
14170;DHT22;63889;50.596;8.690;2023-06-04T04:12:26;13.60;98.30
14170;DHT22;63889;50.596;8.690;2023-06-04T04:14:51;13.60;98.10
14170;DHT22;63889;50.596;8.690;2023-06-04T04:17:17;13.80;98.50
14170;DHT22;63889;50.596;8.690;2023-06-04T04:19:42;13.90;98.00
14170;DHT22;63889;50.596;8.690;2023-06-04T04:22:10;13.60;97.40
14170;DHT22;63889;50.596;8.690;2023-06-04T04:24:36;13.30;97.90
14170;DHT22;63889;50.596;8.690;2023-06-04T04:27:03;13.40;98.20
14170;DHT22;63889;50.596;8.690;2023-06-04T04:29:30;13.60;98.50
14170;DHT22;63889;50.596;8.690;2023-06-04T04:31:58;13.40;98.30
14170;DHT22;63889;50.596;8.690;2023-06-04T04:34:27;13.50;98.40
14170;DHT22;63889;50.596;8.690;2023-06-04T04:36:53;13.80;98.60
14170;DHT22;63889;50.596;8.690;2023-06-04T04:39:23;13.80;98.40
14170;DHT22;63889;50.596;8.690;2023-06-04T04:41:49;13.80;98.10
14170;DHT22;63889;50.596;8.690;2023-06-04T04:44:15;13.80;98.20
14170;DHT22;63889;50.596;8.690;2023-06-04T04:46:41;13.60;98.40
14170;DHT22;63889;50.596;8.690;2023-06-04T04:49:06;13.60;98.70
14170;DHT22;63889;50.596;8.690;2023-06-04T04:51:32;13.70;99.00
14170;DHT22;63889;50.596;8.690;2023-06-04T04:53:58;13.80;98.50
14170;DHT22;63889;50.596;8.690;2023-06-04T04:56:26;13.70;98.70
14170;DHT22;63889;50.596;8.690;2023-06-04T04:58:52;13.70;98.80
14170;DHT22;63889;50.596;8.690;2023-06-04T05:01:17;13.90;99.10
14170;DHT22;63889;50.596;8.690;2023-06-04T05:03:43;13.90;98.60
14170;DHT22;63889;50.596;8.690;2023-06-04T05:06:09;13.70;98.70
14170;DHT22;63889;50.596;8.690;2023-06-04T05:08:34;13.90;98.90
14170;DHT22;63889;50.596;8.690;2023-06-04T05:11:00;13.90;99.20
14170;DHT22;63889;50.596;8.690;2023-06-04T05:13:26;14.10;98.90
14170;DHT22;63889;50.596;8.690;2023-06-04T05:15:51;14.10;98.90
14170;DHT22;63889;50.596;8.690;2023-06-04T05:18:18;14.10;98.90
14170;DHT22;63889;50.596;8.690;2023-06-04T05:20:46;14.30;99.10
14170;DHT22;63889;50.596;8.690;2023-06-04T05:23:12;14.40;98.60
14170;DHT22;63889;50.596;8.690;2023-06-04T05:25:38;14.40;98.80
14170;DHT22;63889;50.596;8.690;2023-06-04T05:28:03;14.60;98.90
14170;DHT22;63889;50.596;8.690;2023-06-04T05:30:31;14.50;98.80
14170;DHT22;63889;50.596;8.690;2023-06-04T05:32:56;14.60;99.20
14170;DHT22;63889;50.596;8.690;2023-06-04T05:35:22;14.60;99.10
14170;DHT22;63889;50.596;8.690;2023-06-04T05:37:48;14.70;99.00
14170;DHT22;63889;50.596;8.690;2023-06-04T05:40:20;14.80;99.40
14170;DHT22;63889;50.596;8.690;2023-06-04T05:42:47;14.90;99.60
14170;DHT22;63889;50.596;8.690;2023-06-04T05:45:12;15.00;99.20
14170;DHT22;63889;50.596;8.690;2023-06-04T05:47:38;14.90;99.30
14170;DHT22;63889;50.596;8.690;2023-06-04T05:50:04;15.00;99.40
14170;DHT22;63889;50.596;8.690;2023-06-04T05:52:32;14.90;99.50
14170;DHT22;63889;50.596;8.690;2023-06-04T05:54:57;15.00;99.80
14170;DHT22;63889;50.596;8.690;2023-06-04T05:57:23;15.10;99.50
14170;DHT22;63889;50.596;8.690;2023-06-04T05:59:48;15.10;99.60
14170;DHT22;63889;50.596;8.690;2023-06-04T06:02:14;15.30;99.80
14170;DHT22;63889;50.596;8.690;2023-06-04T06:04:40;15.30;99.30
14170;DHT22;63889;50.596;8.690;2023-06-04T06:07:05;15.40;99.50
14170;DHT22;63889;50.596;8.690;2023-06-04T06:09:31;15.40;99.40
14170;DHT22;63889;50.596;8.690;2023-06-04T06:11:57;15.50;99.70
14170;DHT22;63889;50.596;8.690;2023-06-04T06:14:23;15.60;99.40
14170;DHT22;63889;50.596;8.690;2023-06-04T06:16:49;15.60;99.20
14170;DHT22;63889;50.596;8.690;2023-06-04T06:19:15;15.60;99.30
14170;DHT22;63889;50.596;8.690;2023-06-04T06:21:40;15.70;99.10
14170;DHT22;63889;50.596;8.690;2023-06-04T06:24:06;15.70;99.50
14170;DHT22;63889;50.596;8.690;2023-06-04T06:26:31;15.70;99.10
14170;DHT22;63889;50.596;8.690;2023-06-04T06:28:57;15.80;99.70
14170;DHT22;63889;50.596;8.690;2023-06-04T06:31:22;15.90;99.80
14170;DHT22;63889;50.596;8.690;2023-06-04T06:33:48;15.90;99.80
14170;DHT22;63889;50.596;8.690;2023-06-04T06:36:14;15.90;99.90
14170;DHT22;63889;50.596;8.690;2023-06-04T06:38:40;16.10;99.90
14170;DHT22;63889;50.596;8.690;2023-06-04T06:41:06;16.10;99.90
14170;DHT22;63889;50.596;8.690;2023-06-04T06:43:32;16.20;99.90
14170;DHT22;63889;50.596;8.690;2023-06-04T06:45:58;16.30;99.90
14170;DHT22;63889;50.596;8.690;2023-06-04T06:48:24;16.40;99.60
14170;DHT22;63889;50.596;8.690;2023-06-04T06:50:49;16.40;99.00
14170;DHT22;63889;50.596;8.690;2023-06-04T06:53:15;16.60;99.00
14170;DHT22;63889;50.596;8.690;2023-06-04T06:55:40;16.50;97.80
14170;DHT22;63889;50.596;8.690;2023-06-04T06:58:06;16.60;98.70
14170;DHT22;63889;50.596;8.690;2023-06-04T07:00:31;16.60;99.20
14170;DHT22;63889;50.596;8.690;2023-06-04T07:02:57;16.70;98.30
14170;DHT22;63889;50.596;8.690;2023-06-04T07:05:22;16.80;98.90
14170;DHT22;63889;50.596;8.690;2023-06-04T07:07:48;16.80;98.20
14170;DHT22;63889;50.596;8.690;2023-06-04T07:10:14;16.90;97.60
14170;DHT22;63889;50.596;8.690;2023-06-04T07:12:40;17.00;98.00
14170;DHT22;63889;50.596;8.690;2023-06-04T07:15:06;17.20;98.00
14170;DHT22;63889;50.596;8.690;2023-06-04T07:17:32;17.20;97.60
14170;DHT22;63889;50.596;8.690;2023-06-04T07:19:58;17.30;97.50
14170;DHT22;63889;50.596;8.690;2023-06-04T07:22:23;17.30;97.30
14170;DHT22;63889;50.596;8.690;2023-06-04T07:24:49;17.40;96.90
14170;DHT22;63889;50.596;8.690;2023-06-04T07:27:15;17.50;97.10
14170;DHT22;63889;50.596;8.690;2023-06-04T07:29:43;17.60;97.40
14170;DHT22;63889;50.596;8.690;2023-06-04T07:32:09;17.80;97.10
14170;DHT22;63889;50.596;8.690;2023-06-04T07:34:34;17.90;96.80
14170;DHT22;63889;50.596;8.690;2023-06-04T07:37:02;18.00;96.60
14170;DHT22;63889;50.596;8.690;2023-06-04T07:39:28;18.00;96.60
14170;DHT22;63889;50.596;8.690;2023-06-04T07:41:53;18.00;97.30
14170;DHT22;63889;50.596;8.690;2023-06-04T07:44:19;18.10;97.60
14170;DHT22;63889;50.596;8.690;2023-06-04T07:46:44;18.20;96.70
14170;DHT22;63889;50.596;8.690;2023-06-04T07:49:10;18.20;97.00
14170;DHT22;63889;50.596;8.690;2023-06-04T07:51:36;18.30;97.10
14170;DHT22;63889;50.596;8.690;2023-06-04T07:54:02;18.40;96.40
14170;DHT22;63889;50.596;8.690;2023-06-04T07:56:28;18.50;96.10
14170;DHT22;63889;50.596;8.690;2023-06-04T07:58:53;18.60;93.40
14170;DHT22;63889;50.596;8.690;2023-06-04T08:01:19;18.80;94.60
14170;DHT22;63889;50.596;8.690;2023-06-04T08:03:45;19.00;94.20
14170;DHT22;63889;50.596;8.690;2023-06-04T08:06:11;19.20;93.30
14170;DHT22;63889;50.596;8.690;2023-06-04T08:08:36;19.40;92.10
14170;DHT22;63889;50.596;8.690;2023-06-04T08:11:02;19.50;92.30
14170;DHT22;63889;50.596;8.690;2023-06-04T08:13:28;19.60;92.90
14170;DHT22;63889;50.596;8.690;2023-06-04T08:15:53;19.60;91.20
14170;DHT22;63889;50.596;8.690;2023-06-04T08:18:19;20.20;89.00
14170;DHT22;63889;50.596;8.690;2023-06-04T08:20:45;20.40;88.20
14170;DHT22;63889;50.596;8.690;2023-06-04T08:23:11;20.50;88.70
14170;DHT22;63889;50.596;8.690;2023-06-04T08:25:36;20.50;86.60
14170;DHT22;63889;50.596;8.690;2023-06-04T08:28:02;20.50;84.20
14170;DHT22;63889;50.596;8.690;2023-06-04T08:30:28;20.60;84.30
14170;DHT22;63889;50.596;8.690;2023-06-04T08:32:54;20.60;87.70
14170;DHT22;63889;50.596;8.690;2023-06-04T08:35:20;20.70;87.40
14170;DHT22;63889;50.596;8.690;2023-06-04T08:37:46;20.60;85.20
14170;DHT22;63889;50.596;8.690;2023-06-04T08:40:12;20.80;84.20
14170;DHT22;63889;50.596;8.690;2023-06-04T08:42:41;21.00;83.10
14170;DHT22;63889;50.596;8.690;2023-06-04T08:45:10;21.10;81.60
14170;DHT22;63889;50.596;8.690;2023-06-04T08:47:39;21.00;81.00
14170;DHT22;63889;50.596;8.690;2023-06-04T08:50:10;21.40;80.60
14170;DHT22;63889;50.596;8.690;2023-06-04T08:52:37;21.50;79.10
14170;DHT22;63889;50.596;8.690;2023-06-04T08:55:03;21.50;80.20
14170;DHT22;63889;50.596;8.690;2023-06-04T08:57:30;21.50;79.70
14170;DHT22;63889;50.596;8.690;2023-06-04T08:59:56;21.50;79.90
14170;DHT22;63889;50.596;8.690;2023-06-04T09:02:22;21.70;77.00
14170;DHT22;63889;50.596;8.690;2023-06-04T09:04:49;21.70;77.10
14170;DHT22;63889;50.596;8.690;2023-06-04T09:07:15;21.80;78.60
14170;DHT22;63889;50.596;8.690;2023-06-04T09:09:44;22.00;77.30
14170;DHT22;63889;50.596;8.690;2023-06-04T09:12:14;22.00;76.80
14170;DHT22;63889;50.596;8.690;2023-06-04T09:14:42;22.10;77.20
14170;DHT22;63889;50.596;8.690;2023-06-04T09:17:08;22.30;75.90
14170;DHT22;63889;50.596;8.690;2023-06-04T09:19:33;22.00;71.90
14170;DHT22;63889;50.596;8.690;2023-06-04T09:22:00;21.70;70.60
14170;DHT22;63889;50.596;8.690;2023-06-04T09:24:42;21.80;73.10
14170;DHT22;63889;50.596;8.690;2023-06-04T09:29:38;22.00;76.50
14170;DHT22;63889;50.596;8.690;2023-06-04T09:32:04;22.30;71.00
14170;DHT22;63889;50.596;8.690;2023-06-04T09:34:30;22.60;72.10
14170;DHT22;63889;50.596;8.690;2023-06-04T09:36:56;22.10;68.80
14170;DHT22;63889;50.596;8.690;2023-06-04T09:39:22;21.90;70.30
14170;DHT22;63889;50.596;8.690;2023-06-04T09:42:01;21.90;67.50
14170;DHT22;63889;50.596;8.690;2023-06-04T09:44:29;22.00;68.30
14170;DHT22;63889;50.596;8.690;2023-06-04T09:46:58;22.30;70.50
14170;DHT22;63889;50.596;8.690;2023-06-04T09:49:24;22.50;69.70
14170;DHT22;63889;50.596;8.690;2023-06-04T09:51:50;22.90;68.10
14170;DHT22;63889;50.596;8.690;2023-06-04T09:54:16;22.90;68.50
14170;DHT22;63889;50.596;8.690;2023-06-04T09:56:42;23.10;68.00
14170;DHT22;63889;50.596;8.690;2023-06-04T09:59:09;23.00;68.90
14170;DHT22;63889;50.596;8.690;2023-06-04T10:01:39;23.20;65.60
14170;DHT22;63889;50.596;8.690;2023-06-04T10:04:07;23.40;67.70
14170;DHT22;63889;50.596;8.690;2023-06-04T10:06:34;23.70;66.20
14170;DHT22;63889;50.596;8.690;2023-06-04T10:09:06;23.60;66.20
14170;DHT22;63889;50.596;8.690;2023-06-04T10:11:41;23.60;66.80
14170;DHT22;63889;50.596;8.690;2023-06-04T10:14:21;23.60;68.30
14170;DHT22;63889;50.596;8.690;2023-06-04T10:16:47;23.80;64.80
14170;DHT22;63889;50.596;8.690;2023-06-04T10:19:14;23.30;65.00
14170;DHT22;63889;50.596;8.690;2023-06-04T10:21:42;23.40;66.90
14170;DHT22;63889;50.596;8.690;2023-06-04T10:24:08;23.70;64.40
14170;DHT22;63889;50.596;8.690;2023-06-04T10:26:34;23.90;64.10
14170;DHT22;63889;50.596;8.690;2023-06-04T10:29:01;24.10;63.20
14170;DHT22;63889;50.596;8.690;2023-06-04T10:31:28;24.20;63.60
14170;DHT22;63889;50.596;8.690;2023-06-04T10:33:54;24.40;62.60
14170;DHT22;63889;50.596;8.690;2023-06-04T10:36:22;24.30;63.50
14170;DHT22;63889;50.596;8.690;2023-06-04T10:38:51;24.80;65.40
14170;DHT22;63889;50.596;8.690;2023-06-04T10:41:19;24.80;61.70
14170;DHT22;63889;50.596;8.690;2023-06-04T10:43:49;25.10;62.30
14170;DHT22;63889;50.596;8.690;2023-06-04T10:46:16;25.10;62.70
14170;DHT22;63889;50.596;8.690;2023-06-04T10:48:49;25.10;60.80
14170;DHT22;63889;50.596;8.690;2023-06-04T10:51:37;25.20;60.00
14170;DHT22;63889;50.596;8.690;2023-06-04T10:54:03;25.40;62.30
14170;DHT22;63889;50.596;8.690;2023-06-04T10:56:30;25.70;60.00
14170;DHT22;63889;50.596;8.690;2023-06-04T10:59:00;25.60;60.90
14170;DHT22;63889;50.596;8.690;2023-06-04T11:01:27;25.70;62.90
14170;DHT22;63889;50.596;8.690;2023-06-04T11:03:57;25.40;60.10
14170;DHT22;63889;50.596;8.690;2023-06-04T11:06:23;25.00;60.30
14170;DHT22;63889;50.596;8.690;2023-06-04T11:09:04;25.30;60.80
14170;DHT22;63889;50.596;8.690;2023-06-04T11:11:31;25.70;62.10
14170;DHT22;63889;50.596;8.690;2023-06-04T11:14:10;26.00;59.50
14170;DHT22;63889;50.596;8.690;2023-06-04T11:16:38;25.50;59.60
14170;DHT22;63889;50.596;8.690;2023-06-04T11:19:03;25.70;60.40
14170;DHT22;63889;50.596;8.690;2023-06-04T11:21:30;26.10;60.50
14170;DHT22;63889;50.596;8.690;2023-06-04T11:23:57;26.30;58.90
14170;DHT22;63889;50.596;8.690;2023-06-04T11:26:33;26.40;59.60
14170;DHT22;63889;50.596;8.690;2023-06-04T11:28:59;26.20;60.40
14170;DHT22;63889;50.596;8.690;2023-06-04T11:31:25;26.80;60.00
14170;DHT22;63889;50.596;8.690;2023-06-04T11:33:51;27.10;57.80
14170;DHT22;63889;50.596;8.690;2023-06-04T11:36:29;27.00;57.50
14170;DHT22;63889;50.596;8.690;2023-06-04T11:38:58;26.70;56.20
14170;DHT22;63889;50.596;8.690;2023-06-04T11:41:31;27.00;59.50
14170;DHT22;63889;50.596;8.690;2023-06-04T11:43:57;27.10;57.50
14170;DHT22;63889;50.596;8.690;2023-06-04T11:46:23;27.20;57.20
14170;DHT22;63889;50.596;8.690;2023-06-04T11:48:52;27.50;60.00
14170;DHT22;63889;50.596;8.690;2023-06-04T11:51:20;27.20;55.10
14170;DHT22;63889;50.596;8.690;2023-06-04T11:53:46;27.10;55.40
14170;DHT22;63889;50.596;8.690;2023-06-04T11:56:12;27.70;56.30
14170;DHT22;63889;50.596;8.690;2023-06-04T11:58:38;27.50;55.80
14170;DHT22;63889;50.596;8.690;2023-06-04T12:01:06;26.90;55.80
14170;DHT22;63889;50.596;8.690;2023-06-04T12:03:40;26.80;55.10
14170;DHT22;63889;50.596;8.690;2023-06-04T12:06:14;26.60;54.70
14170;DHT22;63889;50.596;8.690;2023-06-04T12:08:48;27.00;57.50
14170;DHT22;63889;50.596;8.690;2023-06-04T12:13:57;28.00;56.70
14170;DHT22;63889;50.596;8.690;2023-06-04T12:16:23;28.10;53.20
14170;DHT22;63889;50.596;8.690;2023-06-04T12:18:49;27.80;54.70
14170;DHT22;63889;50.596;8.690;2023-06-04T12:21:22;27.30;54.00
14170;DHT22;63889;50.596;8.690;2023-06-04T12:26:34;27.30;55.20
14170;DHT22;63889;50.596;8.690;2023-06-04T12:29:17;27.80;55.90
14170;DHT22;63889;50.596;8.690;2023-06-04T12:31:46;27.90;55.00
14170;DHT22;63889;50.596;8.690;2023-06-04T12:34:13;27.60;53.50
14170;DHT22;63889;50.596;8.690;2023-06-04T12:36:39;26.90;54.40
14170;DHT22;63889;50.596;8.690;2023-06-04T12:39:06;26.90;54.60
14170;DHT22;63889;50.596;8.690;2023-06-04T12:41:33;27.10;55.50
14170;DHT22;63889;50.596;8.690;2023-06-04T12:43:59;26.90;56.30
14170;DHT22;63889;50.596;8.690;2023-06-04T12:46:25;27.20;55.00
14170;DHT22;63889;50.596;8.690;2023-06-04T12:48:52;27.30;57.10
14170;DHT22;63889;50.596;8.690;2023-06-04T12:51:18;27.30;54.80
14170;DHT22;63889;50.596;8.690;2023-06-04T12:53:44;26.80;54.00
14170;DHT22;63889;50.596;8.690;2023-06-04T12:56:10;26.90;54.30
14170;DHT22;63889;50.596;8.690;2023-06-04T12:58:36;26.70;53.70
14170;DHT22;63889;50.596;8.690;2023-06-04T13:01:02;26.70;55.70
14170;DHT22;63889;50.596;8.690;2023-06-04T13:03:30;26.90;54.30
14170;DHT22;63889;50.596;8.690;2023-06-04T13:05:56;27.20;53.50
14170;DHT22;63889;50.596;8.690;2023-06-04T13:08:22;27.20;58.20
14170;DHT22;63889;50.596;8.690;2023-06-04T13:10:49;27.30;56.40
14170;DHT22;63889;50.596;8.690;2023-06-04T13:13:15;27.30;53.20
14170;DHT22;63889;50.596;8.690;2023-06-04T13:15:41;27.30;54.10
14170;DHT22;63889;50.596;8.690;2023-06-04T13:18:08;27.10;53.20
14170;DHT22;63889;50.596;8.690;2023-06-04T13:20:33;27.10;54.40
14170;DHT22;63889;50.596;8.690;2023-06-04T13:22:59;26.70;53.50
14170;DHT22;63889;50.596;8.690;2023-06-04T13:25:24;26.50;52.90
14170;DHT22;63889;50.596;8.690;2023-06-04T13:27:50;26.20;54.00
14170;DHT22;63889;50.596;8.690;2023-06-04T13:30:15;26.30;54.20
14170;DHT22;63889;50.596;8.690;2023-06-04T13:32:41;26.10;53.90
14170;DHT22;63889;50.596;8.690;2023-06-04T13:35:07;26.60;53.50
14170;DHT22;63889;50.596;8.690;2023-06-04T13:37:32;26.60;54.20
14170;DHT22;63889;50.596;8.690;2023-06-04T13:39:58;26.50;53.80
14170;DHT22;63889;50.596;8.690;2023-06-04T13:42:23;26.80;54.60
14170;DHT22;63889;50.596;8.690;2023-06-04T13:44:49;26.90;55.00
14170;DHT22;63889;50.596;8.690;2023-06-04T13:47:14;26.80;55.70
14170;DHT22;63889;50.596;8.690;2023-06-04T13:49:40;26.60;55.10
14170;DHT22;63889;50.596;8.690;2023-06-04T13:52:06;26.20;54.30
14170;DHT22;63889;50.596;8.690;2023-06-04T13:54:31;26.80;57.00
14170;DHT22;63889;50.596;8.690;2023-06-04T13:56:57;27.00;54.60
14170;DHT22;63889;50.596;8.690;2023-06-04T13:59:22;27.30;57.00
14170;DHT22;63889;50.596;8.690;2023-06-04T14:01:48;27.20;54.50
14170;DHT22;63889;50.596;8.690;2023-06-04T14:04:13;27.20;53.10
14170;DHT22;63889;50.596;8.690;2023-06-04T14:06:39;27.30;55.70
14170;DHT22;63889;50.596;8.690;2023-06-04T14:09:04;27.00;52.70
14170;DHT22;63889;50.596;8.690;2023-06-04T14:11:34;26.80;53.00
14170;DHT22;63889;50.596;8.690;2023-06-04T14:14:00;26.90;54.30
14170;DHT22;63889;50.596;8.690;2023-06-04T14:16:25;26.80;53.10
14170;DHT22;63889;50.596;8.690;2023-06-04T14:18:51;26.70;53.00
14170;DHT22;63889;50.596;8.690;2023-06-04T14:21:16;26.80;55.60
14170;DHT22;63889;50.596;8.690;2023-06-04T14:23:42;27.10;55.70
14170;DHT22;63889;50.596;8.690;2023-06-04T14:26:08;26.30;53.70
14170;DHT22;63889;50.596;8.690;2023-06-04T14:28:33;25.50;54.00
14170;DHT22;63889;50.596;8.690;2023-06-04T14:31:00;25.20;55.40
14170;DHT22;63889;50.596;8.690;2023-06-04T14:33:25;25.40;56.40
14170;DHT22;63889;50.596;8.690;2023-06-04T14:35:51;25.40;54.70
14170;DHT22;63889;50.596;8.690;2023-06-04T14:38:16;25.40;54.90
14170;DHT22;63889;50.596;8.690;2023-06-04T14:40:42;25.40;55.30
14170;DHT22;63889;50.596;8.690;2023-06-04T14:43:10;25.50;55.00
14170;DHT22;63889;50.596;8.690;2023-06-04T14:45:36;25.30;53.90
14170;DHT22;63889;50.596;8.690;2023-06-04T14:48:04;25.30;53.80
14170;DHT22;63889;50.596;8.690;2023-06-04T14:50:29;25.10;54.00
14170;DHT22;63889;50.596;8.690;2023-06-04T14:52:55;25.20;55.40
14170;DHT22;63889;50.596;8.690;2023-06-04T14:55:20;25.10;55.10
14170;DHT22;63889;50.596;8.690;2023-06-04T14:57:46;25.20;54.60
14170;DHT22;63889;50.596;8.690;2023-06-04T15:00:11;25.10;53.40
14170;DHT22;63889;50.596;8.690;2023-06-04T15:02:37;25.00;54.50
14170;DHT22;63889;50.596;8.690;2023-06-04T15:05:03;25.00;54.60
14170;DHT22;63889;50.596;8.690;2023-06-04T15:07:28;25.00;54.60
14170;DHT22;63889;50.596;8.690;2023-06-04T15:09:54;25.00;53.80
14170;DHT22;63889;50.596;8.690;2023-06-04T15:12:21;25.10;54.40
14170;DHT22;63889;50.596;8.690;2023-06-04T15:14:46;25.50;54.30
14170;DHT22;63889;50.596;8.690;2023-06-04T15:17:12;25.60;52.90
14170;DHT22;63889;50.596;8.690;2023-06-04T15:19:37;25.50;56.20
14170;DHT22;63889;50.596;8.690;2023-06-04T15:22:03;25.50;52.90
14170;DHT22;63889;50.596;8.690;2023-06-04T15:24:29;25.20;52.70
14170;DHT22;63889;50.596;8.690;2023-06-04T15:26:55;25.10;53.10
14170;DHT22;63889;50.596;8.690;2023-06-04T15:29:20;25.10;53.10
14170;DHT22;63889;50.596;8.690;2023-06-04T15:31:46;25.00;53.40
14170;DHT22;63889;50.596;8.690;2023-06-04T15:34:12;25.20;54.00
14170;DHT22;63889;50.596;8.690;2023-06-04T15:36:37;24.90;53.70